Aviation Digital Data Service (ADDS)

Output produced by METARs form (1644 UTC 25 October 2014)
found at http://aviationweather.gov/adds/metars/
 
KARA 251553Z 02004KT 10SM CLR 23/11 A3018 RMK AO2 SLP219 T02280106 $